createdAt,value
2022-10-03T00:01:35.067Z,10.57
2022-10-03T00:04:14.290Z,10.66
2022-10-03T00:07:18.630Z,10.73
2022-10-03T00:09:48.392Z,10.67
2022-10-03T00:12:42.336Z,10.68
2022-10-03T00:15:27.776Z,10.71
2022-10-03T00:18:09.074Z,10.68
2022-10-03T00:20:47.364Z,10.65
2022-10-03T00:23:43.459Z,10.70
2022-10-03T00:26:33.583Z,10.70
2022-10-03T00:29:22.052Z,10.67
2022-10-03T00:32:23.495Z,10.72
2022-10-03T00:34:50.641Z,10.71
2022-10-03T00:37:29.774Z,10.71
2022-10-03T00:40:06.129Z,10.73
2022-10-03T00:42:49.341Z,10.75
2022-10-03T00:45:35.360Z,10.73
2022-10-03T00:48:06.612Z,10.73
2022-10-03T00:50:53.495Z,10.74
2022-10-03T00:53:51.003Z,10.77
2022-10-03T00:56:43.914Z,10.78
2022-10-03T01:00:01.571Z,10.70
2022-10-03T01:02:39.546Z,10.66
2022-10-03T01:05:06.817Z,10.67
2022-10-03T01:07:58.631Z,10.67
2022-10-03T01:10:41.941Z,10.62
2022-10-03T01:13:22.361Z,10.67
2022-10-03T01:16:02.026Z,10.69
2022-10-03T01:18:32.671Z,10.64
2022-10-03T01:21:07.011Z,10.64
2022-10-03T01:24:05.265Z,10.70
2022-10-03T01:26:53.136Z,10.67
2022-10-03T01:29:51.076Z,10.68
2022-10-03T01:32:36.804Z,10.70
2022-10-03T01:35:18.184Z,10.77
2022-10-03T01:38:11.879Z,10.69
2022-10-03T01:40:53.643Z,10.73
2022-10-03T01:43:35.217Z,10.84
2022-10-03T01:46:17.432Z,10.77
2022-10-03T01:49:02.186Z,10.75
2022-10-03T01:51:48.162Z,10.75
2022-10-03T01:54:33.240Z,10.72
2022-10-03T01:57:19.228Z,10.75
2022-10-03T02:00:25.357Z,10.74
2022-10-03T02:03:20.852Z,10.76
2022-10-03T02:06:17.504Z,10.71
2022-10-03T02:09:12.649Z,10.70
2022-10-03T02:11:50.084Z,10.72
2022-10-03T02:14:33.795Z,10.75
2022-10-03T02:17:30.690Z,10.75
2022-10-03T02:20:28.407Z,10.74
2022-10-03T02:22:57.649Z,10.87
2022-10-03T02:26:00.128Z,10.83
2022-10-03T02:28:46.804Z,10.82
2022-10-03T02:31:44.635Z,10.82
2022-10-03T02:34:57.636Z,10.84
2022-10-03T02:38:05.852Z,10.85
2022-10-03T02:40:47.589Z,10.88
2022-10-03T02:43:27.646Z,10.90
2022-10-03T02:46:03.971Z,10.93
2022-10-03T02:49:02.925Z,10.98
2022-10-03T02:51:45.570Z,10.95
2022-10-03T02:54:29.063Z,10.99
2022-10-03T02:57:31.917Z,11.02
2022-10-03T03:00:12.324Z,10.99
2022-10-03T03:03:06.192Z,10.98
2022-10-03T03:05:58.111Z,11.04
2022-10-03T03:08:48.506Z,11.03
2022-10-03T03:11:30.989Z,10.99
2022-10-03T03:14:04.476Z,11.04
2022-10-03T03:16:50.005Z,11.06
2022-10-03T03:19:55.519Z,11.08
2022-10-03T03:22:44.203Z,11.03
2022-10-03T03:25:11.421Z,11.03
2022-10-03T03:28:07.921Z,10.96
2022-10-03T03:30:48.037Z,10.99
2022-10-03T03:33:26.523Z,11.06
2022-10-03T03:36:28.210Z,10.98
2022-10-03T03:39:24.351Z,10.99
2022-10-03T03:41:57.533Z,10.93
2022-10-03T03:44:43.316Z,10.89
2022-10-03T03:47:34.771Z,10.93
2022-10-03T03:50:13.657Z,10.96
2022-10-03T03:52:59.113Z,10.96
2022-10-03T03:56:02.535Z,10.96
2022-10-03T03:59:05.649Z,10.88
2022-10-03T04:01:51.114Z,10.89
2022-10-03T04:04:31.094Z,10.94
2022-10-03T04:07:11.531Z,10.93
2022-10-03T04:09:44.199Z,10.91
2022-10-03T04:12:39.323Z,10.88
2022-10-03T04:15:16.803Z,10.93
2022-10-03T04:18:18.461Z,10.96
2022-10-03T04:21:07.216Z,10.87
2022-10-03T04:23:51.054Z,10.87
2022-10-03T04:26:38.273Z,10.87
2022-10-03T04:30:17.670Z,10.87
2022-10-03T04:33:00.955Z,10.90
2022-10-03T04:35:46.517Z,10.88
2022-10-03T04:38:43.177Z,10.87
2022-10-03T04:41:29.573Z,10.87
2022-10-03T04:44:25.578Z,10.88
2022-10-03T04:47:17.021Z,10.83
2022-10-03T04:49:53.090Z,10.79
2022-10-03T04:52:33.591Z,10.92
2022-10-03T04:55:35.976Z,10.86
2022-10-03T04:58:41.905Z,10.88
2022-10-03T05:01:15.262Z,10.85
2022-10-03T05:03:45.819Z,10.86
2022-10-03T05:06:31.086Z,10.90
2022-10-03T05:09:04.534Z,10.90
2022-10-03T05:12:14.855Z,10.90
2022-10-03T05:15:09.078Z,10.94
2022-10-03T05:17:39.130Z,10.94
2022-10-03T05:20:17.341Z,10.88
2022-10-03T05:23:20.342Z,10.92
2022-10-03T05:26:43.998Z,10.95
2022-10-03T05:29:33.924Z,10.93
2022-10-03T05:32:20.805Z,10.85
2022-10-03T05:35:08.072Z,10.83
2022-10-03T05:37:47.580Z,10.80
2022-10-03T05:40:20.466Z,10.83
2022-10-03T05:43:03.030Z,10.82
2022-10-03T05:46:06.788Z,10.78
2022-10-03T05:48:49.180Z,10.84
2022-10-03T05:51:41.944Z,10.84
2022-10-03T05:55:09.549Z,10.90
2022-10-03T05:57:45.057Z,10.93
2022-10-03T06:00:21.710Z,10.89
2022-10-03T06:02:51.911Z,10.85
2022-10-03T06:05:34.580Z,10.91
2022-10-03T06:08:37.039Z,10.82
2022-10-03T06:11:14.522Z,10.79
2022-10-03T06:13:48.091Z,10.81
2022-10-03T06:16:46.418Z,10.83
2022-10-03T06:19:26.269Z,10.88
2022-10-03T06:22:27.977Z,10.89
2022-10-03T06:25:11.877Z,10.94
2022-10-03T06:28:21.954Z,10.98
2022-10-03T06:31:37.887Z,10.97
2022-10-03T06:34:27.186Z,10.98
2022-10-03T06:37:16.167Z,10.96
2022-10-03T06:39:55.066Z,11.01
2022-10-03T06:42:37.633Z,11.20
2022-10-03T06:45:11.182Z,11.15
2022-10-03T06:47:51.392Z,11.11
2022-10-03T06:50:41.513Z,11.10
2022-10-03T06:53:11.817Z,11.14
2022-10-03T06:56:04.701Z,11.14
2022-10-03T06:58:53.853Z,11.19
2022-10-03T07:01:59.688Z,11.19
2022-10-03T07:05:06.289Z,11.23
2022-10-03T07:07:45.924Z,11.25
2022-10-03T07:10:38.256Z,11.27
2022-10-03T07:13:21.456Z,11.45
2022-10-03T07:16:26.489Z,11.47
2022-10-03T07:19:09.549Z,11.44
2022-10-03T07:21:59.721Z,11.53
2022-10-03T07:24:45.029Z,11.57
2022-10-03T07:27:26.547Z,11.50
2022-10-03T07:30:18.748Z,11.64
2022-10-03T07:32:55.108Z,11.64
2022-10-03T07:35:59.453Z,11.64
2022-10-03T07:38:58.356Z,11.68
2022-10-03T07:41:44.255Z,11.77
2022-10-03T07:44:33.106Z,11.75
2022-10-03T07:47:38.673Z,11.81
2022-10-03T07:50:41.352Z,11.80
2022-10-03T07:53:57.546Z,11.91
2022-10-03T07:56:52.119Z,11.99
2022-10-03T08:00:00.828Z,11.95
2022-10-03T08:02:46.293Z,11.94
2022-10-03T08:05:26.084Z,11.90
2022-10-03T08:08:09.551Z,11.94
2022-10-03T08:11:08.197Z,11.98
2022-10-03T08:14:46.444Z,12.06
2022-10-03T08:17:15.087Z,12.06
2022-10-03T08:19:57.616Z,12.12
2022-10-03T08:22:46.602Z,12.13
2022-10-03T08:25:35.623Z,12.15
2022-10-03T08:28:18.056Z,12.18
2022-10-03T08:31:04.565Z,12.30
2022-10-03T08:33:41.554Z,12.27
2022-10-03T08:36:24.942Z,12.37
2022-10-03T08:39:10.354Z,12.33
2022-10-03T08:42:15.616Z,12.38
2022-10-03T08:46:00.244Z,12.52
2022-10-03T08:48:35.505Z,12.50
2022-10-03T08:51:11.359Z,12.52
2022-10-03T08:53:51.330Z,12.62
2022-10-03T08:56:22.835Z,12.52
2022-10-03T08:59:16.580Z,12.49
2022-10-03T09:02:09.911Z,12.59
2022-10-03T09:04:55.892Z,12.61
2022-10-03T09:07:31.309Z,12.73
2022-10-03T09:10:09.826Z,12.73
2022-10-03T09:13:10.561Z,12.76
2022-10-03T09:16:08.966Z,12.87
2022-10-03T09:18:57.095Z,13.05
2022-10-03T09:21:40.024Z,13.05
2022-10-03T09:24:44.841Z,13.04
2022-10-03T09:27:31.740Z,13.04
2022-10-03T09:30:15.507Z,13.00
2022-10-03T09:33:03.957Z,13.13
2022-10-03T09:35:31.007Z,13.23
2022-10-03T09:38:31.120Z,13.40
2022-10-03T09:41:32.387Z,13.41
2022-10-03T09:44:30.267Z,13.46
2022-10-03T09:47:28.635Z,13.57
2022-10-03T09:50:30.220Z,13.67
2022-10-03T09:53:02.520Z,13.76
2022-10-03T09:56:03.077Z,13.81
2022-10-03T09:59:01.169Z,13.90
2022-10-03T10:01:51.721Z,13.86
2022-10-03T10:04:54.737Z,13.80
2022-10-03T10:07:42.097Z,13.76
2022-10-03T10:10:38.192Z,13.69
2022-10-03T10:13:16.583Z,13.61
2022-10-03T10:15:46.754Z,13.63
2022-10-03T10:18:35.751Z,13.71
2022-10-03T10:21:30.812Z,13.82
2022-10-03T10:24:14.543Z,13.89
2022-10-03T10:26:57.359Z,14.04
2022-10-03T10:29:30.239Z,14.15
2022-10-03T10:32:06.404Z,14.18
2022-10-03T10:34:37.032Z,14.37
2022-10-03T10:37:34.362Z,14.56
2022-10-03T10:40:29.372Z,14.77
2022-10-03T10:43:29.400Z,14.78
2022-10-03T10:46:39.177Z,14.53
2022-10-03T10:49:39.143Z,14.58
2022-10-03T10:52:40.507Z,14.71
2022-10-03T10:55:25.982Z,14.76
2022-10-03T10:58:27.186Z,14.80
2022-10-03T11:01:28.557Z,15.02
2022-10-03T11:04:24.799Z,15.09
2022-10-03T11:07:37.192Z,15.08
2022-10-03T11:10:31.682Z,15.02
2022-10-03T11:13:01.923Z,14.90
2022-10-03T11:15:59.566Z,14.96
2022-10-03T11:18:59.591Z,14.94
2022-10-03T11:21:51.039Z,14.92
2022-10-03T11:24:56.053Z,15.05
2022-10-03T11:27:57.358Z,15.14
2022-10-03T11:31:01.307Z,15.22
2022-10-03T11:33:59.206Z,15.08
2022-10-03T11:37:03.403Z,15.14
2022-10-03T11:39:33.558Z,15.20
2022-10-03T11:42:17.121Z,15.06
2022-10-03T11:45:04.370Z,14.93
2022-10-03T11:48:17.332Z,14.97
2022-10-03T11:50:54.466Z,15.12
2022-10-03T11:53:34.569Z,15.26
2022-10-03T11:56:19.082Z,15.33
2022-10-03T11:59:14.232Z,15.28
2022-10-03T12:02:11.546Z,15.22
2022-10-03T12:04:50.213Z,15.16
2022-10-03T12:07:58.622Z,15.35
2022-10-03T12:10:48.119Z,15.34
2022-10-03T12:13:40.851Z,15.40
2022-10-03T12:16:19.259Z,15.29
2022-10-03T12:18:52.212Z,15.41
2022-10-03T12:21:25.173Z,15.23
2022-10-03T12:24:26.879Z,15.67
2022-10-03T12:27:23.703Z,16.11
2022-10-03T12:29:59.818Z,16.53
2022-10-03T12:32:49.748Z,17.01
2022-10-03T12:35:32.743Z,17.41
2022-10-03T12:38:18.590Z,17.37
2022-10-03T12:41:10.893Z,17.40
2022-10-03T12:43:40.874Z,17.70
2022-10-03T12:46:17.033Z,17.69
2022-10-03T12:49:07.117Z,17.68
2022-10-03T12:51:39.750Z,17.38
2022-10-03T12:54:26.952Z,17.07
2022-10-03T12:57:24.808Z,16.99
2022-10-03T13:00:14.234Z,17.00
2022-10-03T13:03:06.635Z,17.54
2022-10-03T13:05:43.753Z,17.85
2022-10-03T13:08:38.865Z,18.01
2022-10-03T13:11:37.359Z,18.41
2022-10-03T13:14:19.655Z,18.69
2022-10-03T13:17:01.166Z,18.68
2022-10-03T13:19:36.101Z,18.74
2022-10-03T13:22:28.421Z,18.71
2022-10-03T13:25:02.942Z,18.86
2022-10-03T13:27:38.691Z,18.57
2022-10-03T13:30:19.676Z,18.14
2022-10-03T13:33:22.375Z,18.07
2022-10-03T13:36:03.868Z,18.11
2022-10-03T13:39:12.224Z,17.90
2022-10-03T13:41:53.074Z,17.52
2022-10-03T13:44:24.130Z,17.38
2022-10-03T13:47:05.619Z,17.22
2022-10-03T13:49:47.446Z,17.13
2022-10-03T13:52:25.785Z,17.14
2022-10-03T13:55:19.413Z,17.30
2022-10-03T13:57:58.713Z,17.18
2022-10-03T14:00:28.656Z,16.89
2022-10-03T14:03:23.233Z,16.60
2022-10-03T14:06:02.098Z,16.58
2022-10-03T14:08:51.913Z,17.31
2022-10-03T14:11:50.916Z,18.16
2022-10-03T14:14:39.306Z,18.36
2022-10-03T14:17:20.587Z,18.68
2022-10-03T14:20:22.474Z,19.37
2022-10-03T14:22:52.731Z,19.68
2022-10-03T14:25:31.178Z,19.77
2022-10-03T14:28:03.234Z,19.65
2022-10-03T14:31:05.945Z,19.31
2022-10-03T14:33:49.703Z,18.85
2022-10-03T14:36:57.089Z,18.21
2022-10-03T14:40:07.812Z,17.97
2022-10-03T14:42:41.634Z,17.96
2022-10-03T14:45:24.236Z,17.80
2022-10-03T14:48:39.626Z,17.44
2022-10-03T14:51:39.117Z,17.06
2022-10-03T14:54:44.766Z,16.91
2022-10-03T14:57:29.970Z,16.86
2022-10-03T15:00:08.787Z,16.82
2022-10-03T15:02:54.707Z,16.72
2022-10-03T15:06:00.100Z,16.58
2022-10-03T15:08:44.122Z,16.45
2022-10-03T15:11:29.484Z,16.35
2022-10-03T15:14:04.971Z,16.18
2022-10-03T15:16:56.110Z,16.20
2022-10-03T15:19:55.202Z,16.10
2022-10-03T15:22:55.695Z,16.00
2022-10-03T15:25:38.096Z,15.98
2022-10-03T15:28:11.960Z,15.96
2022-10-03T15:30:47.687Z,15.92
2022-10-03T15:34:03.766Z,15.80
2022-10-03T15:36:38.770Z,15.65
2022-10-03T15:39:20.171Z,15.60
2022-10-03T15:42:12.130Z,15.56
2022-10-03T15:44:56.327Z,15.49
2022-10-03T15:47:39.873Z,15.62
2022-10-03T15:50:29.238Z,15.58
2022-10-03T15:53:24.227Z,15.53
2022-10-03T15:55:51.355Z,15.56
2022-10-03T15:58:37.649Z,15.61
2022-10-03T16:01:26.134Z,15.38
2022-10-03T16:04:02.655Z,15.39
2022-10-03T16:06:47.732Z,15.36
2022-10-03T16:09:47.432Z,15.36
2022-10-03T16:12:41.248Z,15.11
2022-10-03T16:15:21.198Z,15.01
2022-10-03T16:18:02.413Z,15.01
2022-10-03T16:20:41.754Z,14.94
2022-10-03T16:23:20.556Z,14.98
2022-10-03T16:26:02.334Z,15.01
2022-10-03T16:29:06.140Z,14.89
2022-10-03T16:31:48.786Z,14.81
2022-10-03T16:34:17.875Z,14.77
2022-10-03T16:36:51.908Z,14.75
2022-10-03T16:40:07.787Z,14.76
2022-10-03T16:42:58.295Z,14.69
2022-10-03T16:45:40.668Z,14.65
2022-10-03T16:48:57.042Z,14.64
2022-10-03T16:51:57.409Z,14.61
2022-10-03T16:58:44.688Z,14.54
2022-10-03T17:01:52.058Z,14.52
2022-10-03T17:04:59.759Z,14.52
2022-10-03T17:08:41.192Z,14.44
2022-10-03T17:14:46.232Z,14.34
2022-10-03T17:17:53.838Z,14.25
2022-10-03T17:20:45.478Z,14.11
2022-10-03T17:24:01.848Z,14.06
2022-10-03T17:26:45.095Z,14.11
2022-10-03T17:29:50.055Z,14.16
2022-10-03T17:32:53.433Z,14.13
2022-10-03T17:35:50.436Z,14.10
2022-10-03T17:38:49.909Z,14.09
2022-10-03T17:41:56.167Z,14.02
2022-10-03T17:45:03.808Z,13.94
2022-10-03T17:48:28.064Z,13.84
2022-10-03T17:51:20.974Z,13.85
2022-10-03T17:53:57.725Z,13.82
2022-10-03T17:57:25.526Z,13.78
2022-10-03T18:00:08.466Z,13.74
2022-10-03T18:03:07.765Z,13.73
2022-10-03T18:06:00.383Z,13.75
2022-10-03T18:08:51.811Z,13.70
2022-10-03T18:11:43.289Z,13.63
2022-10-03T18:14:33.707Z,13.57
2022-10-03T18:17:50.900Z,13.64
2022-10-03T18:20:57.078Z,13.65
2022-10-03T18:27:45.216Z,13.62
2022-10-03T18:30:35.807Z,13.60
2022-10-03T18:33:35.116Z,13.59
2022-10-03T18:36:26.674Z,13.59
2022-10-03T18:42:51.550Z,13.51
2022-10-03T18:45:58.924Z,13.42
2022-10-03T18:49:33.566Z,13.40
2022-10-03T18:52:36.151Z,13.32
2022-10-03T18:56:02.465Z,13.30
2022-10-03T18:58:52.119Z,13.25
2022-10-03T19:01:59.221Z,13.21
2022-10-03T19:04:52.811Z,13.27
2022-10-03T19:13:23.677Z,13.25
2022-10-03T19:25:23.817Z,13.10
2022-10-03T19:51:53.800Z,12.94
2022-10-03T20:02:54.934Z,13.02
2022-10-03T20:34:25.049Z,12.87
2022-10-03T20:38:12.567Z,12.86
2022-10-03T20:51:23.930Z,12.80
2022-10-03T20:54:39.110Z,12.81
2022-10-03T20:57:28.572Z,12.80
2022-10-03T21:00:25.178Z,12.77
2022-10-03T21:03:16.728Z,12.77
2022-10-03T21:05:54.522Z,12.78
2022-10-03T21:08:44.006Z,12.75
2022-10-03T21:11:34.386Z,12.75
2022-10-03T21:14:20.300Z,12.76
2022-10-03T21:16:57.370Z,12.73
2022-10-03T21:20:08.755Z,12.70
2022-10-03T21:22:38.176Z,12.74
2022-10-03T21:25:21.175Z,12.75
2022-10-03T21:31:25.675Z,12.81
2022-10-03T21:34:18.063Z,12.80
2022-10-03T21:37:08.461Z,12.77
2022-10-03T21:39:53.962Z,12.72
2022-10-03T21:42:30.915Z,12.73
2022-10-03T21:45:27.766Z,12.85
2022-10-03T21:48:08.046Z,12.81
2022-10-03T21:50:57.718Z,12.81
2022-10-03T21:53:37.131Z,12.78
2022-10-03T21:56:38.031Z,12.88
2022-10-03T21:59:26.743Z,12.79
2022-10-03T22:02:20.652Z,12.74
2022-10-03T22:05:05.171Z,12.71
2022-10-03T22:07:47.866Z,12.66
2022-10-03T22:10:30.857Z,12.66
2022-10-03T22:13:23.125Z,12.72
2022-10-03T22:15:57.380Z,12.71
2022-10-03T22:18:36.585Z,12.68
2022-10-03T22:21:32.826Z,12.68
2022-10-03T22:24:11.546Z,12.73
2022-10-03T22:30:04.735Z,12.69
2022-10-03T22:33:01.181Z,12.68
2022-10-03T22:35:29.010Z,12.67
2022-10-03T22:37:59.873Z,12.72
2022-10-03T22:40:41.027Z,12.68
2022-10-03T22:43:10.648Z,12.64
2022-10-03T22:45:43.541Z,12.63
2022-10-03T22:48:20.816Z,12.62
2022-10-03T22:50:51.740Z,12.65
2022-10-03T22:53:22.966Z,12.66
2022-10-03T22:55:53.172Z,12.68
2022-10-03T22:58:23.165Z,12.70
2022-10-03T23:00:57.462Z,12.66
2022-10-03T23:03:50.820Z,12.58
2022-10-03T23:06:47.983Z,12.59
2022-10-03T23:09:28.975Z,12.68
2022-10-03T23:11:58.049Z,12.75
2022-10-03T23:14:29.838Z,12.83
2022-10-03T23:17:20.813Z,12.76
2022-10-03T23:20:14.749Z,12.62
2022-10-03T23:22:46.142Z,12.60
2022-10-03T23:25:47.995Z,12.57
2022-10-03T23:28:21.826Z,12.68
2022-10-03T23:30:57.335Z,12.73
2022-10-03T23:33:46.165Z,12.67
2022-10-03T23:36:18.083Z,12.71
2022-10-03T23:38:46.076Z,12.67
2022-10-03T23:41:20.191Z,12.66
2022-10-03T23:43:51.944Z,12.60
2022-10-03T23:46:26.512Z,12.57
2022-10-03T23:48:57.634Z,12.56
2022-10-03T23:51:36.647Z,12.55
2022-10-03T23:54:11.684Z,12.56
2022-10-03T23:56:52.563Z,12.52
2022-10-03T23:59:25.348Z,12.51
